createdAt,value
2019-05-12T00:01:58.891Z,90.72
2019-05-12T00:07:06.042Z,90.99
2019-05-12T00:12:11.479Z,90.50
2019-05-12T00:17:18.768Z,90.77
2019-05-12T00:22:25.670Z,90.92
2019-05-12T00:27:31.003Z,90.54
2019-05-12T00:32:38.442Z,90.63
2019-05-12T00:37:43.109Z,89.94
2019-05-12T00:42:51.540Z,89.69
2019-05-12T00:47:59.076Z,90.23
2019-05-12T00:53:04.453Z,90.21
2019-05-12T00:58:10.007Z,89.37
2019-05-12T01:03:18.955Z,90.94
2019-05-12T01:08:28.083Z,90.98
2019-05-12T01:13:34.083Z,90.51
2019-05-12T01:18:39.603Z,90.82
2019-05-12T01:23:56.341Z,91.25
2019-05-12T01:28:51.980Z,91.45
2019-05-12T01:33:58.581Z,92.27
2019-05-12T01:39:08.262Z,91.91
2019-05-12T01:44:14.079Z,92.51
2019-05-12T01:49:19.529Z,91.22
2019-05-12T01:54:24.835Z,90.56
2019-05-12T01:59:31.968Z,91.11
2019-05-12T02:04:58.789Z,91.72
2019-05-12T02:10:05.180Z,91.18
2019-05-12T02:15:10.663Z,89.72
2019-05-12T02:20:18.111Z,89.41
2019-05-12T02:25:23.626Z,89.93
2019-05-12T02:30:30.259Z,89.86
2019-05-12T02:35:36.355Z,90.26
2019-05-12T02:40:44.677Z,89.98
2019-05-12T02:45:48.839Z,89.39
2019-05-12T02:50:54.588Z,89.98
2019-05-12T02:56:04.732Z,90.16
2019-05-12T03:01:09.491Z,90.99
2019-05-12T03:06:15.342Z,91.89
2019-05-12T03:11:21.189Z,90.95
2019-05-12T03:16:27.499Z,91.13
2019-05-12T03:21:35.285Z,91.76
2019-05-12T03:26:39.571Z,92.15
2019-05-12T03:31:48.815Z,92.41
2019-05-12T03:36:58.046Z,93.03
2019-05-12T03:41:59.633Z,92.26
2019-05-12T03:47:08.243Z,91.51
2019-05-12T03:52:15.365Z,90.93
2019-05-12T03:57:20.879Z,92.42
2019-05-12T04:02:26.891Z,91.11
2019-05-12T04:07:34.493Z,91.05
2019-05-12T04:12:40.854Z,90.71
2019-05-12T04:17:46.372Z,90.20
2019-05-12T04:22:54.467Z,89.44
2019-05-12T04:27:58.565Z,89.42
2019-05-12T04:33:04.917Z,89.32
2019-05-12T04:38:10.555Z,89.70
2019-05-12T04:43:15.681Z,87.34
2019-05-12T04:48:21.674Z,87.71
2019-05-12T04:53:28.189Z,86.97
2019-05-12T04:58:35.081Z,86.68
2019-05-12T05:03:40.678Z,86.98
2019-05-12T05:08:45.927Z,88.00
2019-05-12T05:13:51.077Z,89.08
2019-05-12T05:18:56.508Z,88.21
2019-05-12T05:24:03.793Z,88.48
2019-05-12T05:29:08.667Z,88.31
2019-05-12T05:34:15.153Z,87.59
2019-05-12T05:39:20.608Z,88.23
2019-05-12T05:44:29.192Z,87.43
2019-05-12T05:49:34.273Z,88.26
2019-05-12T05:54:40.184Z,87.78
2019-05-12T05:59:45.460Z,87.19
2019-05-12T06:04:54.088Z,87.50
2019-05-12T06:09:58.353Z,88.02
2019-05-12T06:15:04.238Z,86.39
2019-05-12T06:20:09.696Z,85.27
2019-05-12T06:25:16.101Z,84.61
2019-05-12T06:30:24.147Z,83.44
2019-05-12T06:35:30.978Z,82.62
2019-05-12T06:40:40.839Z,82.66
2019-05-12T06:45:45.529Z,81.96
2019-05-12T06:50:50.365Z,83.73
2019-05-12T06:55:55.879Z,86.33
2019-05-12T07:01:10.394Z,88.27
2019-05-12T07:06:17.919Z,87.93
2019-05-12T07:11:19.947Z,86.52
2019-05-12T07:16:29.959Z,85.86
2019-05-12T07:21:33.517Z,84.67
2019-05-12T07:26:39.786Z,83.18
2019-05-12T07:31:45.553Z,79.16
2019-05-12T07:36:54.096Z,78.47
2019-05-12T07:42:03.614Z,79.09
2019-05-12T07:47:09.419Z,78.98
2019-05-12T07:52:15.521Z,79.09
2019-05-12T07:57:21.221Z,80.25
2019-05-12T08:02:31.671Z,79.50
2019-05-12T08:07:34.958Z,80.01
2019-05-12T08:12:40.639Z,79.05
2019-05-12T08:17:49.193Z,76.98
2019-05-12T08:22:59.639Z,74.96
2019-05-12T08:28:14.132Z,74.50
2019-05-12T08:33:10.391Z,75.62
2019-05-12T08:38:15.789Z,75.63
2019-05-12T08:43:24.087Z,75.10
2019-05-12T08:48:29.080Z,73.95
2019-05-12T08:53:34.613Z,73.44
2019-05-12T08:58:48.289Z,71.07
2019-05-12T09:03:48.145Z,67.62
2019-05-12T09:08:55.061Z,68.58
2019-05-12T09:14:03.581Z,67.46
2019-05-12T09:19:15.529Z,68.62
2019-05-12T09:24:21.968Z,67.53
2019-05-12T09:29:25.428Z,65.03
2019-05-12T09:34:33.607Z,64.95
2019-05-12T09:39:42.866Z,66.71
2019-05-12T09:44:45.917Z,65.15
2019-05-12T09:49:53.592Z,61.77
2019-05-12T09:55:00.046Z,61.65
2019-05-12T10:00:06.186Z,58.81
2019-05-12T10:05:14.389Z,56.54
2019-05-12T10:10:21.245Z,53.76
2019-05-12T10:15:30.598Z,55.83
2019-05-12T10:20:39.657Z,55.58
2019-05-12T10:25:44.541Z,54.26
2019-05-12T10:30:55.268Z,52.09
2019-05-12T10:36:06.808Z,52.17
2019-05-12T10:41:13.329Z,49.71
2019-05-12T10:46:23.230Z,47.63
2019-05-12T10:51:25.994Z,48.56
2019-05-12T10:56:38.292Z,50.71
2019-05-12T11:01:48.842Z,49.41
2019-05-12T11:06:54.627Z,47.32
2019-05-12T11:12:00.317Z,47.84
2019-05-12T11:17:10.051Z,48.70
2019-05-12T11:22:15.289Z,42.87
2019-05-12T11:27:23.964Z,42.66
2019-05-12T11:32:33.596Z,39.81
2019-05-12T11:37:36.140Z,41.82
2019-05-12T11:42:46.803Z,48.04
2019-05-12T11:47:49.553Z,46.41
2019-05-12T11:52:55.856Z,47.21
2019-05-12T11:58:06.901Z,47.00
2019-05-12T12:03:12.961Z,49.38
2019-05-12T12:08:18.938Z,49.02
2019-05-12T12:13:29.942Z,46.72
2019-05-12T12:18:34.187Z,46.06
2019-05-12T12:23:41.039Z,46.65
2019-05-12T12:28:49.048Z,45.27
2019-05-12T12:33:54.916Z,42.17
2019-05-12T12:39:04.052Z,41.02
2019-05-12T12:44:13.635Z,39.13
2019-05-12T12:49:19.526Z,40.78
2019-05-12T12:54:24.818Z,40.68
2019-05-12T12:59:33.245Z,42.82
2019-05-12T13:04:45.160Z,43.88
2019-05-12T13:09:47.485Z,43.85
2019-05-12T13:14:53.327Z,43.05
2019-05-12T13:19:59.604Z,42.35
2019-05-12T13:25:08.601Z,41.71
2019-05-12T13:30:21.231Z,41.17
2019-05-12T13:35:24.694Z,40.63
2019-05-12T13:40:37.635Z,40.92
2019-05-12T13:45:39.070Z,40.35
2019-05-12T13:50:46.594Z,39.32
2019-05-12T13:55:53.746Z,39.81
2019-05-12T14:01:13.394Z,38.85
2019-05-12T14:06:07.275Z,38.73
2019-05-12T14:11:12.834Z,39.27
2019-05-12T14:16:18.591Z,38.64
2019-05-12T14:21:25.267Z,37.39
2019-05-12T14:26:30.810Z,37.57
2019-05-12T14:31:45.322Z,37.27
2019-05-12T14:36:43.384Z,38.61
2019-05-12T14:41:52.994Z,36.71
2019-05-12T14:46:57.185Z,37.45
2019-05-12T14:52:03.406Z,36.54
2019-05-12T14:57:13.773Z,35.50
2019-05-12T15:02:24.555Z,36.14
2019-05-12T15:07:26.467Z,36.19
2019-05-12T15:12:33.560Z,35.69
2019-05-12T15:17:39.006Z,36.05
2019-05-12T15:22:51.375Z,35.94
2019-05-12T15:27:51.332Z,36.31
2019-05-12T15:33:00.288Z,36.18
2019-05-12T15:38:09.403Z,37.02
2019-05-12T15:43:13.805Z,36.74
2019-05-12T15:48:20.147Z,34.99
2019-05-12T15:53:27.083Z,36.66
2019-05-12T15:58:33.916Z,37.21
2019-05-12T16:03:39.774Z,38.13
2019-05-12T16:08:47.624Z,37.73
2019-05-12T16:13:59.037Z,37.81
2019-05-12T16:19:00.974Z,38.46
2019-05-12T16:24:11.019Z,38.92
2019-05-12T16:29:13.818Z,39.18
2019-05-12T16:34:19.210Z,40.44
2019-05-12T16:39:30.558Z,40.57
2019-05-12T16:44:34.854Z,39.16
2019-05-12T16:49:44.579Z,40.41
2019-05-12T16:54:54.796Z,39.96
2019-05-12T17:00:06.735Z,40.26
2019-05-12T17:05:15.658Z,40.71
2019-05-12T17:10:18.207Z,41.79
2019-05-12T17:15:24.923Z,41.75
2019-05-12T17:20:33.040Z,41.93
2019-05-12T17:25:42.244Z,42.75
2019-05-12T17:30:50.505Z,42.47
2019-05-12T17:36:02.037Z,42.40
2019-05-12T17:41:04.691Z,43.52
2019-05-12T17:46:17.813Z,43.00
2019-05-12T17:51:23.899Z,42.94
2019-05-12T17:56:33.986Z,43.47
2019-05-12T18:01:37.122Z,43.56
2019-05-12T18:06:44.789Z,43.64
2019-05-12T18:11:52.565Z,44.11
2019-05-12T18:17:08.478Z,44.26
2019-05-12T18:22:09.259Z,43.59
2019-05-12T18:27:15.278Z,43.86
2019-05-12T18:32:20.772Z,44.66
2019-05-12T18:37:28.736Z,43.97
2019-05-12T18:42:34.454Z,44.09
2019-05-12T18:47:44.038Z,45.07
2019-05-12T18:52:50.085Z,45.44
2019-05-12T18:57:57.633Z,45.96
2019-05-12T19:03:08.069Z,46.18
2019-05-12T19:08:10.864Z,46.76
2019-05-12T19:13:16.185Z,45.94
2019-05-12T19:18:24.430Z,45.45
2019-05-12T19:23:35.047Z,46.84
2019-05-12T19:28:44.754Z,45.14
2019-05-12T19:33:53.019Z,45.85
2019-05-12T19:38:54.378Z,46.17
2019-05-12T19:43:59.397Z,45.79
2019-05-12T19:49:04.938Z,45.71
2019-05-12T19:54:10.693Z,45.21
2019-05-12T19:59:16.126Z,45.25
2019-05-12T20:04:33.510Z,44.75
2019-05-12T20:09:31.900Z,43.57
2019-05-12T20:14:40.617Z,43.80
2019-05-12T20:19:45.816Z,42.43
2019-05-12T20:24:53.683Z,42.55
2019-05-12T20:29:59.437Z,41.82
2019-05-12T20:35:04.848Z,41.42
2019-05-12T20:40:10.162Z,41.03
2019-05-12T20:45:25.943Z,41.08
2019-05-12T20:50:34.406Z,41.01
2019-05-12T20:55:41.409Z,42.25
2019-05-12T21:00:50.068Z,42.66
2019-05-12T21:05:58.100Z,42.78
2019-05-12T21:11:02.003Z,42.66
2019-05-12T21:16:16.338Z,42.81
2019-05-12T21:21:14.622Z,43.01
2019-05-12T21:26:21.897Z,42.94
2019-05-12T21:31:30.867Z,44.46
2019-05-12T21:36:34.442Z,43.28
2019-05-12T21:41:40.708Z,44.45
2019-05-12T21:46:57.106Z,43.15
2019-05-12T21:51:58.859Z,43.35
2019-05-12T21:57:00.875Z,43.98
2019-05-12T22:02:06.125Z,43.70
2019-05-12T22:07:11.439Z,43.46
2019-05-12T22:12:23.414Z,43.51
2019-05-12T22:17:27.619Z,43.36
2019-05-12T22:22:33.298Z,43.35
2019-05-12T22:27:38.739Z,44.33
2019-05-12T22:32:43.972Z,44.67
2019-05-12T22:37:49.161Z,45.19
2019-05-12T22:42:59.330Z,45.66
2019-05-12T22:48:04.042Z,45.77
2019-05-12T22:53:08.385Z,46.50
2019-05-12T22:58:20.672Z,46.02
2019-05-12T23:03:20.668Z,46.31
2019-05-12T23:08:25.918Z,47.22
2019-05-12T23:13:32.164Z,46.46
2019-05-12T23:18:38.685Z,46.93
2019-05-12T23:23:44.098Z,46.95
2019-05-12T23:28:50.302Z,47.27
2019-05-12T23:33:56.065Z,47.36
2019-05-12T23:39:02.809Z,48.38
2019-05-12T23:44:08.282Z,49.18
2019-05-12T23:49:14.381Z,49.24
2019-05-12T23:54:20.684Z,48.78
2019-05-12T23:59:25.968Z,48.86
